Terminal Aerodrome Forecast
Issued by NWS St Louis, MO

Home | Current Version | Previous Version | Text Only | Print | Product List | Glossary On
Versions: 1 2 3 4 5 6 7 8 9 10 11 12 13 14 15 16 17 18 19 20 21 22 23 24 25
317
FTUS43 KLSX 231047 AAB
TAFCOU
TAF AMD
KCOU 231047Z 2311/2406 VRB04KT 1SM BR SCT002 BKN250
      TEMPO 2311/2313 1/4SM FG VV001
     FM231300 07006KT 4SM BR SCT025 BKN120
     FM231500 08007KT 6SM BR BKN025
     FM231800 10012KT P6SM BKN040
     FM240000 13012G19KT P6SM BKN250=

USA.gov is the U.S. government's official web portal to all federal, state and local government web resources and services.